Time;durP1;ratioP1;P1;durP2;ratioP2;P2;SDS_P1;SDS_P2;PMS_P1;PMS_P2;Temp;Humidity;BMP_temperature;BMP_pressure;BME280_temperature;BME280_humidity;BME280_pressure;Samples;Min_cycle;Max_cycle;Signal;HPM_P1;HPM_P2
2021/07/03 00:05:48;;;;;;;14.03;10.17;;;;;;;16.11;72.11;98344.04;513366;1089;103116;-42
2021/07/03 00:26:04;;;;;;;16.00;10.75;;;;;;;16.03;72.36;98333.91;513037;1089;103098;-42
2021/07/03 00:36:12;;;;;;;11.47;8.67;;;;;;;16.09;72.78;98329.35;513103;1088;103130;-43
2021/07/03 00:46:20;;;;;;;11.53;8.23;;;;;;;16.13;72.56;98330.43;513051;1088;103399;-42
2021/07/03 01:06:33;;;;;;;12.63;8.93;;;;;;;15.98;73.18;98333.14;512961;1089;103765;-41
2021/07/03 01:16:42;;;;;;;12.37;8.47;;;;;;;15.92;73.19;98327.83;512820;1088;104580;-42
2021/07/03 01:26:52;;;;;;;14.27;10.23;;;;;;;15.85;73.21;98334.49;512967;1088;103499;-42
2021/07/03 01:37:00;;;;;;;18.00;11.00;;;;;;;15.75;73.67;98342.53;513815;1089;103143;-40
2021/07/03 01:47:09;;;;;;;19.03;12.13;;;;;;;15.67;73.83;98341.22;513053;1089;103521;-42
2021/07/03 01:57:17;;;;;;;14.28;10.83;;;;;;;15.68;74.35;98342.02;512957;1089;103115;-42
2021/07/03 02:07:24;;;;;;;18.87;13.30;;;;;;;15.68;75.30;98332.16;513028;1089;103416;-41
2021/07/03 02:17:31;;;;;;;14.23;11.23;;;;;;;15.67;75.33;98343.09;513275;1089;103199;-43
2021/07/03 02:27:39;;;;;;;17.13;10.93;;;;;;;15.67;75.71;98343.89;513059;1089;103236;-42
2021/07/03 02:37:48;;;;;;;13.77;10.67;;;;;;;15.70;75.87;98347.88;513188;1088;103099;-44
2021/07/03 02:47:55;;;;;;;12.20;9.67;;;;;;;15.75;75.98;98355.86;513396;1089;103424;-42
2021/07/03 02:58:03;;;;;;;13.37;9.90;;;;;;;15.76;76.02;98355.59;513088;1089;103154;-43
2021/07/03 03:08:11;;;;;;;14.43;9.57;;;;;;;15.89;76.11;98368.37;512894;1088;103512;-42
2021/07/03 03:18:19;;;;;;;12.00;9.60;;;;;;;15.97;76.30;98369.67;513078;1089;103493;-43
2021/07/03 03:28:26;;;;;;;12.57;9.53;;;;;;;16.19;76.10;98359.47;513206;1089;103099;-42
2021/07/03 03:38:34;;;;;;;15.97;9.40;;;;;;;17.11;75.91;98354.47;513054;1088;103121;-43
2021/07/03 03:48:42;;;;;;;12.53;9.33;;;;;;;17.08;75.61;98363.04;512930;1088;103042;-43
2021/07/03 03:58:48;;;;;;;11.80;9.43;;;;;;;18.40;75.48;98356.41;512991;1088;103176;-42
2021/07/03 04:08:55;;;;;;;13.23;9.63;;;;;;;18.71;74.42;98358.73;512985;1089;103068;-41
2021/07/03 04:19:03;;;;;;;12.25;8.78;;;;;;;20.03;73.54;98356.59;513143;1088;104755;-42
2021/07/03 04:29:09;;;;;;;12.33;7.90;;;;;;;21.53;71.75;98354.69;513055;1088;103132;-42
2021/07/03 04:39:16;;;;;;;;;;;;;;;22.48;69.33;98355.09;513065;1089;104452;-43
2021/07/03 04:49:23;;;;;;;12.00;6.85;;;;;;;23.48;67.37;98354.17;513102;1089;103170;-42
2021/07/03 04:59:31;;;;;;;12.43;6.80;;;;;;;23.69;64.21;98362.41;513202;1088;103128;-42
2021/07/03 05:09:37;;;;;;;;;;;;;;;22.71;63.92;98353.04;513017;1089;104157;-43
2021/07/03 05:19:44;;;;;;;7.70;6.00;;;;;;;23.33;63.17;98347.36;512940;1088;103582;-42
2021/07/03 05:29:52;;;;;;;7.67;5.77;;;;;;;23.84;61.56;98349.16;513269;1088;103060;-42
2021/07/03 05:40:02;;;;;;;6.77;5.80;;;;;;;24.00;58.62;98362.92;513550;1089;103803;-43
2021/07/03 05:50:11;;;;;;;10.43;6.83;;;;;;;22.77;59.14;98367.17;514331;1089;103150;-41
2021/07/03 06:00:21;;;;;;;9.17;7.87;;;;;;;21.49;61.12;98369.03;513535;1089;103146;-41
2021/07/03 06:10:29;;;;;;;12.47;8.40;;;;;;;21.34;62.30;98373.70;514150;1089;103043;-40
2021/07/03 06:20:33;;;;;;;9.88;7.75;;;;;;;21.83;62.34;98382.70;513839;1088;103706;-40
2021/07/03 06:30:43;;;;;;;16.75;8.45;;;;;;;21.26;62.39;98395.13;513448;1089;103463;-41
2021/07/03 06:40:50;;;;;;;11.47;8.37;;;;;;;21.36;63.57;98381.46;513766;1089;103438;-41
2021/07/03 06:50:56;;;;;;;;;;;;;;;21.08;62.88;98392.30;513227;1089;104394;-41
2021/07/03 07:01:04;;;;;;;12.97;7.57;;;;;;;21.07;63.62;98387.23;512855;1089;103102;-41
2021/07/03 07:11:12;;;;;;;11.38;7.60;;;;;;;21.41;63.50;98387.50;512965;1089;103563;-42
2021/07/03 07:21:20;;;;;;;8.83;6.53;;;;;;;21.96;62.43;98392.56;513181;1088;103116;-41
2021/07/03 07:31:26;;;;;;;;;;;;;;;21.73;61.78;98386.43;513750;1089;103460;-39
2021/07/03 07:41:33;;;;;;;12.70;7.20;;;;;;;22.19;61.39;98381.77;514005;1088;103102;-41
2021/07/03 07:51:42;;;;;;;14.63;8.67;;;;;;;21.96;60.16;98387.18;514072;1089;103135;-40
2021/07/03 08:01:49;;;;;;;13.63;7.10;;;;;;;21.93;61.02;98381.63;513795;1088;103776;-41
2021/07/03 08:11:56;;;;;;;9.93;6.90;;;;;;;22.19;60.22;98395.23;513821;1089;103412;-42
2021/07/03 08:22:03;;;;;;;;;;;;;;;22.46;59.21;98380.73;513647;1089;103127;-44
2021/07/03 08:32:11;;;;;;;9.60;6.77;;;;;;;22.29;58.69;98374.20;513550;1089;103161;-42
2021/07/03 08:42:19;;;;;;;11.07;6.87;;;;;;;22.63;59.20;98370.00;513012;1089;103209;-42
2021/07/03 08:52:27;;;;;;;14.60;7.25;;;;;;;22.42;58.86;98369.80;513109;1088;103138;-41
2021/07/03 09:02:41;;;;;;;16.30;8.10;;;;;;;22.88;58.59;98363.88;513182;1088;103627;-42
2021/07/03 09:12:52;;;;;;;13.10;8.30;;;;;;;23.20;55.97;98356.44;512912;1089;103211;-41
2021/07/03 09:23:02;;;;;;;16.77;8.30;;;;;;;23.30;56.30;98358.00;513004;1089;103098;-41
2021/07/03 09:33:11;;;;;;;12.50;8.50;;;;;;;23.69;55.96;98363.20;512922;1088;103122;-42
2021/07/03 09:43:19;;;;;;;16.30;8.57;;;;;;;23.73;56.34;98358.73;513151;1089;103505;-42
2021/07/03 09:53:25;;;;;;;9.57;8.10;;;;;;;24.75;55.24;98330.73;513024;1089;103162;-41
2021/07/03 10:03:34;;;;;;;10.08;7.95;;;;;;;25.34;53.90;98336.78;513335;1090;103141;-42
2021/07/03 10:13:43;;;;;;;8.00;7.20;;;;;;;25.33;51.50;98327.08;512986;1089;103662;-41
2021/07/03 10:23:51;;;;;;;9.05;7.20;;;;;;;24.90;50.88;98318.53;512955;1089;103118;-42
2021/07/03 10:33:59;;;;;;;18.00;6.40;;;;;;;24.46;51.35;98321.55;513067;1089;103135;-42
2021/07/03 10:44:10;;;;;;;8.03;6.73;;;;;;;23.61;51.03;98325.41;513134;1089;103143;-42
2021/07/03 10:54:26;;;;;;;9.50;7.00;;;;;;;23.53;52.06;98325.09;512876;1088;103133;-42
2021/07/03 11:14:49;;;;;;;10.93;7.90;;;;;;;22.07;53.23;98327.72;513268;1088;103300;-42
2021/07/03 11:24:59;;;;;;;11.13;8.27;;;;;;;21.73;54.55;98329.13;513266;1089;103159;-41
2021/07/03 11:35:07;;;;;;;23.30;8.45;;;;;;;21.72;55.12;98344.48;513071;1089;103156;-41
2021/07/03 11:45:18;;;;;;;13.93;9.23;;;;;;;21.87;55.86;98331.73;513045;1089;103208;-42
2021/07/03 11:55:28;;;;;;;10.35;8.00;;;;;;;22.20;55.27;98321.41;513044;1089;103460;-41
2021/07/03 12:05:50;;;;;;;11.67;7.07;;;;;;;22.52;54.78;98312.94;513262;1092;103107;-42
2021/07/03 12:16:05;;;;;;;8.93;6.20;;;;;;;22.78;53.99;98325.64;512965;1092;103525;-42
2021/07/03 12:26:14;;;;;;;7.97;5.73;;;;;;;22.94;52.83;98314.06;512907;1091;103403;-43
2021/07/03 12:36:22;;;;;;;8.17;5.50;;;;;;;23.52;50.38;98298.44;512805;1092;103122;-41
2021/07/03 12:46:35;;;;;;;6.55;4.65;;;;;;;23.71;49.22;98282.69;512837;1092;103109;-41
2021/07/03 12:56:44;;;;;;;7.00;4.65;;;;;;;23.69;48.25;98281.42;513013;1092;103130;-42
2021/07/03 13:06:51;;;;;;;9.20;5.40;;;;;;;23.43;47.65;98282.28;512990;1091;103093;-42
2021/07/03 13:16:59;;;;;;;6.85;4.45;;;;;;;23.55;47.73;98279.69;512955;1091;103049;-41
2021/07/03 13:27:07;;;;;;;11.20;4.80;;;;;;;23.49;48.60;98280.98;512790;1091;103115;-41
2021/07/03 13:37:15;;;;;;;6.57;4.80;;;;;;;23.49;48.79;98272.89;512960;1091;103119;-43
2021/07/03 13:47:23;;;;;;;6.73;5.23;;;;;;;23.49;49.11;98264.80;513092;1092;103140;-42
2021/07/03 13:57:28;;;;;;;;;;;;;;;23.68;49.43;98258.25;513005;1092;103125;-43
2021/07/03 14:07:36;;;;;;;6.83;4.50;;;;;;;23.87;49.41;98239.71;512934;1091;103179;-42
2021/07/03 14:17:44;;;;;;;5.80;4.90;;;;;;;24.00;48.95;98232.50;513021;1091;103571;-41
2021/07/03 14:27:53;;;;;;;8.70;3.53;;;;;;;23.97;47.86;98236.66;512879;1092;103393;-41
2021/07/03 14:38:00;;;;;;;9.03;4.63;;;;;;;24.01;46.89;98229.47;512959;1091;103073;-42
2021/07/03 14:48:08;;;;;;;9.15;4.70;;;;;;;24.15;46.63;98235.44;512944;1091;103406;-42
2021/07/03 14:58:16;;;;;;;10.50;5.77;;;;;;;24.00;45.69;98229.80;512933;1092;104253;-42
2021/07/03 15:08:23;;;;;;;7.40;4.30;;;;;;;23.85;46.49;98234.64;512998;1093;103149;-42
2021/07/03 15:18:31;;;;;;;9.20;4.13;;;;;;;23.79;46.87;98241.34;513055;1090;103597;-42
2021/07/03 15:28:38;;;;;;;9.10;5.28;;;;;;;23.58;46.10;98229.70;512780;1091;103121;-41
2021/07/03 15:38:45;;;;;;;9.35;4.10;;;;;;;23.58;45.98;98235.09;512807;1091;103094;-43
2021/07/03 15:48:53;;;;;;;7.30;4.93;;;;;;;23.42;45.70;98215.94;512755;1092;103117;-41
2021/07/03 15:59:01;;;;;;;8.13;4.77;;;;;;;23.23;46.35;98232.50;512747;1092;103096;-41
2021/07/03 16:09:09;;;;;;;23.67;6.23;;;;;;;23.16;46.25;98231.39;512685;1091;103142;-42
2021/07/03 16:19:16;;;;;;;8.97;4.57;;;;;;;23.06;46.05;98240.63;512929;1091;103122;-40
2021/07/03 16:29:24;;;;;;;7.50;4.63;;;;;;;22.96;45.64;98246.38;512775;1091;103098;-41
2021/07/03 16:39:32;;;;;;;6.50;5.13;;;;;;;22.82;46.14;98254.63;512898;1093;103144;-41
2021/07/03 16:49:40;;;;;;;7.57;4.70;;;;;;;22.80;46.21;98250.63;513156;1092;103099;-41
2021/07/03 16:59:46;;;;;;;;;;;;;;;22.76;46.90;98249.69;512895;1092;103116;-41
2021/07/03 17:09:54;;;;;;;7.77;5.07;;;;;;;22.72;47.61;98249.54;512744;1091;103099;-41
2021/07/03 17:20:02;;;;;;;6.93;5.20;;;;;;;22.51;47.77;98260.16;512886;1091;103482;-41
2021/07/03 17:30:10;;;;;;;;;;;;;;;22.09;49.87;98258.20;512811;1092;103116;-41
2021/07/03 17:40:16;;;;;;;7.68;5.50;;;;;;;21.77;50.61;98273.60;512980;1091;103150;-42
2021/07/03 17:50:23;;;;;;;12.23;6.03;;;;;;;21.46;51.29;98284.37;512859;1092;103444;-41
2021/07/03 18:00:30;;;;;;;;;;;;;;;21.27;52.04;98292.64;512854;1091;103141;-41
2021/07/03 18:10:38;;;;;;;10.57;5.90;;;;;;;21.14;52.22;98294.29;512960;1092;103102;-41
2021/07/03 18:20:46;;;;;;;13.55;5.35;;;;;;;21.09;53.09;98290.94;512954;1092;103109;-42
2021/07/03 18:30:53;;;;;;;6.43;5.73;;;;;;;20.94;53.66;98294.78;512872;1091;103421;-40
2021/07/03 18:41:01;;;;;;;8.30;5.13;;;;;;;20.83;54.07;98299.61;512652;1091;103159;-39
2021/07/03 18:51:09;;;;;;;8.13;5.60;;;;;;;20.78;54.71;98298.91;513042;1091;103134;-41
2021/07/03 19:01:17;;;;;;;12.40;5.80;;;;;;;20.54;54.99;98313.41;513036;1091;103540;-40
2021/07/03 19:11:24;;;;;;;11.87;6.40;;;;;;;20.29;55.66;98313.13;513131;1091;103118;-40
2021/07/03 19:21:32;;;;;;;10.93;5.58;;;;;;;19.92;56.29;98318.42;512798;1090;103640;-41
2021/07/03 19:31:40;;;;;;;6.63;5.60;;;;;;;19.78;56.80;98319.50;512931;1091;103143;-41
2021/07/03 19:41:48;;;;;;;9.83;6.13;;;;;;;19.75;57.50;98325.46;512979;1092;103049;-40
2021/07/03 19:51:56;;;;;;;9.17;5.60;;;;;;;19.60;58.01;98327.31;512871;1092;103153;-40
2021/07/03 20:02:02;;;;;;;15.13;10.37;;;;;;;19.33;58.21;98327.23;512902;1091;103111;-41
2021/07/03 20:12:10;;;;;;;13.90;9.23;;;;;;;19.08;58.73;98323.08;513085;1092;103406;-41
2021/07/03 20:22:17;;;;;;;;;;;;;;;18.90;59.47;98335.41;512886;1092;103482;-42
2021/07/03 20:32:23;;;;;;;17.40;8.50;;;;;;;18.56;60.07;98334.80;512786;1092;103165;-41
2021/07/03 20:42:30;;;;;;;17.00;11.07;;;;;;;18.37;60.68;98324.87;513060;1092;103132;-42
2021/07/03 20:52:38;;;;;;;21.30;11.57;;;;;;;18.19;61.29;98327.50;512995;1092;103514;-43
2021/07/03 21:02:45;;;;;;;17.77;10.90;;;;;;;17.95;61.25;98322.95;512834;1092;103118;-41
2021/07/03 21:12:54;;;;;;;15.43;10.30;;;;;;;17.62;61.57;98331.85;513169;1092;103424;-41
2021/07/03 21:23:02;;;;;;;16.43;9.50;;;;;;;17.37;62.20;98341.70;513087;1091;103159;-41
2021/07/03 21:33:09;;;;;;;19.33;9.20;;;;;;;17.28;62.25;98337.25;512959;1092;103416;-43
2021/07/03 21:43:17;;;;;;;17.17;9.20;;;;;;;17.16;62.89;98334.92;512924;1092;103115;-41
2021/07/03 21:53:25;;;;;;;19.40;10.48;;;;;;;16.98;63.08;98341.73;513037;1091;103140;-43
2021/07/03 22:03:37;;;;;;;21.10;11.50;;;;;;;16.68;63.16;98329.38;513072;1092;103303;-42
2021/07/03 22:13:46;;;;;;;21.50;10.73;;;;;;;16.52;63.72;98325.95;512854;1092;103135;-42
2021/07/03 22:23:56;;;;;;;16.30;9.90;;;;;;;16.42;64.38;98330.56;512971;1093;104173;-42
2021/07/03 22:34:04;;;;;;;14.60;8.67;;;;;;;16.50;64.59;98325.44;513036;1092;103463;-42
2021/07/03 22:44:12;;;;;;;14.23;9.07;;;;;;;16.42;65.11;98320.69;513080;1092;103504;-42
2021/07/03 22:54:20;;;;;;;19.33;8.70;;;;;;;16.27;65.19;98324.22;512819;1092;103032;-42
2021/07/03 23:04:28;;;;;;;14.60;8.13;;;;;;;16.25;65.18;98309.56;513068;1092;103095;-41
2021/07/03 23:14:36;;;;;;;11.93;7.53;;;;;;;16.11;65.40;98304.03;512994;1092;103110;-41
2021/07/03 23:24:43;;;;;;;12.17;7.30;;;;;;;16.20;65.91;98309.59;512834;1093;103048;-42
2021/07/03 23:34:52;;;;;;;13.05;9.00;;;;;;;15.90;65.55;98302.52;512969;1091;103137;-42
2021/07/03 23:45:00;;;;;;;11.53;8.30;;;;;;;15.63;65.77;98303.66;512962;1092;103179;-41
2021/07/03 23:55:10;;;;;;;12.30;7.10;;;;;;;15.38;66.08;98300.17;512884;1091;103144;-40
